Time;durP1;ratioP1;P1;durP2;ratioP2;P2;SDS_P1;SDS_P2;PMS_P1;PMS_P2;Temp;Humidity;BMP_temperature;BMP_pressure;BME280_temperature;BME280_humidity;BME280_pressure;Samples;Min_cycle;Max_cycle;Signal;HPM_P1;HPM_P2
2021/05/30 00:01:53;;;;;;;1.20;1.00;;;9.30;98.00;;;;;;5051118;28;20960;-73
2021/05/30 00:04:20;;;;;;;1.27;0.97;;;9.40;98.00;;;;;;5048655;28;20570;-73
2021/05/30 00:06:47;;;;;;;1.20;1.10;;;9.50;98.00;;;;;;5051121;28;20487;-73
2021/05/30 00:09:14;;;;;;;1.20;0.90;;;9.50;98.00;;;;;;5048625;28;20484;-74
2021/05/30 00:11:41;;;;;;;1.30;1.10;;;9.40;98.00;;;;;;5049613;28;20467;-73
2021/05/30 00:14:07;;;;;;;1.83;1.10;;;9.40;98.00;;;;;;5048473;28;20461;-73
2021/05/30 00:16:35;;;;;;;1.20;1.03;;;9.30;98.00;;;;;;5050711;28;20450;-74
2021/05/30 00:19:02;;;;;;;1.73;1.23;;;9.30;98.00;;;;;;5048160;28;20504;-73
2021/05/30 00:21:30;;;;;;;1.83;1.20;;;9.20;98.00;;;;;;5050656;28;20453;-73
2021/05/30 00:23:57;;;;;;;1.20;1.00;;;9.20;98.00;;;;;;5048173;28;20555;-73
2021/05/30 00:26:23;;;;;;;1.20;0.90;;;9.10;98.00;;;;;;5050648;28;20485;-72
2021/05/30 00:28:50;;;;;;;1.20;1.00;;;9.30;98.00;;;;;;5047886;28;20495;-73
2021/05/30 00:31:16;;;;;;;1.20;0.90;;;9.40;98.00;;;;;;5050609;28;20470;-74
2021/05/30 00:33:45;;;;;;;1.30;1.00;;;9.40;98.00;;;;;;5048226;28;20466;-72
2021/05/30 00:36:12;;;;;;;1.30;1.00;;;9.20;98.00;;;;;;5049379;28;20537;-73
2021/05/30 00:38:39;;;;;;;1.60;1.17;;;9.20;98.00;;;;;;5047892;28;20493;-73
2021/05/30 00:41:06;;;;;;;1.20;1.00;;;9.30;98.00;;;;;;5050639;28;20489;-73
2021/05/30 00:43:43;;;;;;;1.30;1.00;;;9.20;98.00;;;;;;5047794;28;20512;-73
2021/05/30 00:46:10;;;;;;;1.30;1.10;;;9.30;98.00;;;;;;5050450;28;20458;-73
2021/05/30 00:48:37;;;;;;;1.20;1.00;;;9.30;98.00;;;;;;5046631;28;20454;-73
2021/05/30 00:51:03;;;;;;;1.20;0.90;;;9.50;98.00;;;;;;5050383;28;21004;-73
2021/05/30 00:53:30;;;;;;;1.20;0.90;;;9.20;98.00;;;;;;5047577;28;20458;-73
2021/05/30 00:55:57;;;;;;;1.30;1.10;;;9.10;98.00;;;;;;5036170;28;20981;-74
2021/05/30 00:58:24;;;;;;;1.30;1.20;;;9.00;98.00;;;;;;5051927;28;20481;-73
2021/05/30 01:00:51;;;;;;;1.97;1.20;;;9.00;98.00;;;;;;5054560;28;20474;-72
2021/05/30 01:03:17;;;;;;;1.20;1.00;;;9.00;98.00;;;;;;5051600;28;20521;-74
2021/05/30 01:05:45;;;;;;;1.23;1.10;;;9.10;98.00;;;;;;5054567;28;20494;-73
2021/05/30 01:08:12;;;;;;;1.20;0.90;;;9.20;98.00;;;;;;5051654;28;20576;-74
2021/05/30 01:10:44;;;;;;;1.20;1.10;;;9.10;98.00;;;;;;5054628;28;20804;-72
2021/05/30 01:13:13;;;;;;;1.30;1.00;;;9.20;98.00;;;;;;5052033;28;20461;-73
2021/05/30 01:15:40;;;;;;;1.20;1.03;;;9.20;98.00;;;;;;5054289;28;20446;-73
2021/05/30 01:18:06;;;;;;;1.27;1.13;;;9.00;98.00;;;;;;5051678;28;20516;-73
2021/05/30 01:20:34;;;;;;;1.27;1.00;;;8.90;98.00;;;;;;5054141;28;20504;-73
2021/05/30 01:23:06;;;;;;;1.47;1.10;;;8.80;98.00;;;;;;5051279;28;20481;-73
2021/05/30 01:25:33;;;;;;;1.40;1.20;;;8.80;98.00;;;;;;5054098;28;20464;-72
2021/05/30 01:27:59;;;;;;;1.20;1.10;;;8.80;98.00;;;;;;5051483;28;20485;-73
2021/05/30 01:30:25;;;;;;;1.20;1.10;;;8.70;98.00;;;;;;5053772;28;20969;-73
2021/05/30 01:32:52;;;;;;;1.20;1.07;;;8.70;98.00;;;;;;5051439;28;20876;-73
2021/05/30 01:35:19;;;;;;;1.20;1.00;;;8.60;98.00;;;;;;5053788;28;20460;-74
2021/05/30 01:37:48;;;;;;;1.20;1.10;;;8.70;98.00;;;;;;5051130;28;20522;-73
2021/05/30 01:40:17;;;;;;;1.20;1.10;;;8.70;98.00;;;;;;5053681;28;20507;-74
2021/05/30 01:42:43;;;;;;;1.20;1.00;;;8.60;98.00;;;;;;5050974;28;20516;-72
2021/05/30 01:45:11;;;;;;;1.50;1.10;;;8.60;98.00;;;;;;5053609;28;20484;-73
2021/05/30 01:47:38;;;;;;;1.20;1.00;;;8.50;98.00;;;;;;5051134;28;20831;-73
2021/05/30 01:50:07;;;;;;;5.73;1.40;;;8.50;98.00;;;;;;5053710;28;20472;-74
2021/05/30 01:52:34;;;;;;;1.20;1.00;;;8.50;98.00;;;;;;5049638;28;20457;-72
2021/05/30 01:55:01;;;;;;;1.20;1.00;;;8.70;98.00;;;;;;5052296;28;20470;-73
2021/05/30 01:57:29;;;;;;;1.50;1.20;;;8.50;98.00;;;;;;5049726;28;20541;-73
2021/05/30 01:59:56;;;;;;;1.20;1.00;;;8.70;98.00;;;;;;5051851;28;20465;-73
2021/05/30 02:02:25;;;;;;;1.20;1.07;;;8.70;98.00;;;;;;5049634;28;20615;-72
2021/05/30 02:04:53;;;;;;;2.23;1.10;;;8.70;98.00;;;;;;5051850;28;20453;-74
2021/05/30 02:07:21;;;;;;;1.40;1.20;;;8.60;98.00;;;;;;5050420;28;20504;-73
2021/05/30 02:09:48;;;;;;;1.20;0.97;;;8.50;98.00;;;;;;5051788;28;20552;-73
2021/05/30 02:12:15;;;;;;;2.23;1.37;;;8.50;98.00;;;;;;5052058;28;20956;-72
2021/05/30 02:14:42;;;;;;;2.13;1.20;;;8.50;98.00;;;;;;5049466;28;20464;-73
2021/05/30 02:17:10;;;;;;;1.40;1.20;;;8.40;98.00;;;;;;5051956;28;20456;-73
2021/05/30 02:19:37;;;;;;;1.57;1.20;;;8.30;98.00;;;;;;5049336;28;20501;-73
2021/05/30 02:22:04;;;;;;;7.53;1.53;;;8.30;98.00;;;;;;5051800;28;20468;-73
2021/05/30 02:24:31;;;;;;;1.20;1.00;;;8.30;98.00;;;;;;5049742;28;20481;-73
2021/05/30 02:26:57;;;;;;;1.30;1.00;;;8.30;98.00;;;;;;5050706;28;20488;-72
2021/05/30 02:29:34;;;;;;;1.20;1.10;;;8.20;98.00;;;;;;5049788;28;20457;-73
2021/05/30 02:32:03;;;;;;;1.20;1.00;;;8.10;98.00;;;;;;5052058;28;20500;-73
2021/05/30 02:34:29;;;;;;;1.20;1.00;;;8.10;98.00;;;;;;5049358;28;20497;-72
2021/05/30 02:36:56;;;;;;;1.20;1.00;;;8.00;98.00;;;;;;5051616;28;20808;-72
2021/05/30 02:39:23;;;;;;;1.30;1.10;;;8.10;98.00;;;;;;5049040;28;20472;-73
2021/05/30 02:41:49;;;;;;;1.20;1.00;;;8.10;98.00;;;;;;5051627;28;20946;-73
2021/05/30 02:44:16;;;;;;;1.33;1.00;;;8.10;98.00;;;;;;5048884;28;20829;-73
2021/05/30 02:46:43;;;;;;;2.17;1.13;;;8.10;98.00;;;;;;5051407;28;20457;-73
2021/05/30 02:49:26;;;;;;;2.13;1.13;;;8.20;98.00;;;;;;5048998;28;20464;-73
2021/05/30 02:51:53;;;;;;;3.30;1.50;;;8.30;98.00;;;;;;5012476;28;1137808;-73
2021/05/30 02:54:23;;;;;;;1.33;1.20;;;8.10;98.00;;;;;;5050171;28;20483;-72
2021/05/30 02:56:49;;;;;;;1.30;1.20;;;8.20;98.00;;;;;;5051926;28;20462;-73
2021/05/30 02:59:16;;;;;;;1.20;0.90;;;8.30;98.00;;;;;;5049805;28;20879;-73
2021/05/30 03:01:43;;;;;;;1.20;0.90;;;8.30;98.00;;;;;;5050972;28;20542;-74
2021/05/30 03:04:09;;;;;;;1.30;1.20;;;8.30;98.00;;;;;;5049759;28;21013;-72
2021/05/30 03:06:37;;;;;;;1.70;1.40;;;8.30;98.00;;;;;;5052020;28;20568;-73
2021/05/30 03:09:05;;;;;;;1.20;1.00;;;8.20;98.00;;;;;;5049649;28;20456;-74
2021/05/30 03:11:31;;;;;;;1.20;1.10;;;8.10;98.00;;;;;;5051010;28;20468;-73
2021/05/30 03:13:58;;;;;;;1.20;0.97;;;8.00;98.00;;;;;;5049462;28;20488;-73
2021/05/30 03:16:25;;;;;;;1.40;1.10;;;8.00;98.00;;;;;;5050468;28;20456;-73
2021/05/30 03:18:52;;;;;;;1.20;1.00;;;8.10;98.00;;;;;;5048811;28;20459;-73
2021/05/30 03:21:18;;;;;;;1.50;1.20;;;8.00;98.00;;;;;;5051867;28;20490;-72
2021/05/30 03:23:47;;;;;;;1.97;1.10;;;8.00;98.00;;;;;;5049284;28;20890;-73
2021/05/30 03:26:13;;;;;;;1.30;1.30;;;8.10;98.00;;;;;;5050587;28;20460;-74
2021/05/30 03:28:40;;;;;;;1.20;1.00;;;8.10;98.00;;;;;;5049115;28;20535;-73
2021/05/30 03:31:06;;;;;;;1.60;1.10;;;8.00;98.00;;;;;;5050545;28;20762;-73
2021/05/30 03:33:33;;;;;;;1.47;1.17;;;7.90;98.00;;;;;;5049332;28;20498;-73
2021/05/30 03:36:02;;;;;;;1.30;1.10;;;8.00;98.00;;;;;;5052216;28;20456;-73
2021/05/30 03:38:31;;;;;;;1.20;1.00;;;8.00;98.00;;;;;;5050387;28;20458;-73
2021/05/30 03:41:02;;;;;;;1.20;1.00;;;8.00;98.00;;;;;;5052008;28;20873;-73
2021/05/30 03:43:31;;;;;;;1.53;1.10;;;7.90;98.00;;;;;;5050446;28;20502;-72
2021/05/30 03:45:57;;;;;;;1.20;0.90;;;8.00;98.00;;;;;;5052116;28;20465;-73
2021/05/30 03:48:24;;;;;;;1.20;1.00;;;8.00;98.00;;;;;;5049132;28;20519;-72
2021/05/30 03:50:50;;;;;;;1.40;1.13;;;8.10;98.00;;;;;;5050002;28;20465;-74
2021/05/30 03:53:17;;;;;;;1.20;0.90;;;7.90;98.00;;;;;;5049625;28;20457;-74
2021/05/30 03:55:44;;;;;;;1.30;1.10;;;7.90;98.00;;;;;;5051674;28;20519;-72
2021/05/30 03:58:12;;;;;;;1.20;1.00;;;8.00;98.00;;;;;;5047516;28;20458;-73
2021/05/30 04:00:39;;;;;;;1.20;1.00;;;8.10;98.00;;;;;;5049970;28;20550;-73
2021/05/30 04:03:05;;;;;;;1.20;1.00;;;8.10;98.00;;;;;;5048521;28;20492;-72
2021/05/30 04:05:32;;;;;;;1.20;1.10;;;8.10;98.00;;;;;;5051209;28;20485;-72
2021/05/30 04:07:59;;;;;;;1.20;0.90;;;8.10;98.00;;;;;;5048726;28;20847;-72
2021/05/30 04:10:26;;;;;;;1.20;1.00;;;8.10;98.00;;;;;;5051074;28;20461;-72
2021/05/30 04:12:53;;;;;;;1.40;1.10;;;8.00;98.00;;;;;;5048436;28;20587;-73
2021/05/30 04:15:20;;;;;;;1.20;1.00;;;8.00;98.00;;;;;;5051032;28;20480;-73
2021/05/30 04:17:47;;;;;;;1.40;1.37;;;8.00;98.00;;;;;;5048565;28;20492;-72
2021/05/30 04:20:16;;;;;;;2.13;1.17;;;7.90;98.00;;;;;;5050744;28;20504;-72
2021/05/30 04:22:44;;;;;;;1.70;1.33;;;7.80;98.00;;;;;;5048148;28;20488;-73
2021/05/30 04:25:12;;;;;;;1.83;1.20;;;7.80;98.00;;;;;;5050805;28;20457;-72
2021/05/30 04:27:38;;;;;;;1.20;1.10;;;7.80;98.00;;;;;;5048295;28;20479;-73
2021/05/30 04:30:08;;;;;;;1.20;1.00;;;7.80;98.00;;;;;;5050669;28;20471;-72
2021/05/30 04:32:36;;;;;;;1.50;1.10;;;7.90;98.00;;;;;;5049157;28;20485;-72
2021/05/30 04:35:03;;;;;;;1.20;0.93;;;7.90;98.00;;;;;;5050651;28;20525;-73
2021/05/30 04:37:30;;;;;;;1.20;1.10;;;8.00;98.00;;;;;;5049405;28;20530;-72
2021/05/30 04:39:56;;;;;;;1.20;0.90;;;8.00;98.00;;;;;;5048510;28;20462;-73
2021/05/30 04:42:23;;;;;;;1.20;1.00;;;8.00;98.00;;;;;;5050605;28;20968;-72
2021/05/30 04:44:49;;;;;;;1.20;1.10;;;8.10;98.00;;;;;;5048745;28;20471;-73
2021/05/30 04:47:16;;;;;;;1.30;1.10;;;8.10;98.00;;;;;;5050534;28;20495;-73
2021/05/30 04:49:43;;;;;;;1.20;1.07;;;8.00;98.00;;;;;;5048006;28;20871;-73
2021/05/30 04:52:12;;;;;;;1.20;1.00;;;8.10;98.00;;;;;;5050798;28;20781;-72
2021/05/30 04:54:40;;;;;;;1.47;1.30;;;8.10;98.00;;;;;;5048602;28;20464;-72
2021/05/30 04:57:07;;;;;;;1.20;1.00;;;8.10;98.00;;;;;;5050630;28;20956;-74
2021/05/30 04:59:33;;;;;;;1.73;1.30;;;8.10;98.00;;;;;;5048283;28;20487;-73
2021/05/30 05:02:00;;;;;;;2.23;1.50;;;8.10;98.00;;;;;;5050795;28;20461;-73
2021/05/30 05:04:26;;;;;;;1.20;1.00;;;8.30;98.00;;;;;;5048253;28;20489;-73
2021/05/30 05:06:54;;;;;;;2.07;1.20;;;8.50;98.00;;;;;;5049417;28;20980;-73
2021/05/30 05:09:20;;;;;;;1.20;1.00;;;8.60;98.00;;;;;;5048067;28;20542;-73
2021/05/30 05:11:47;;;;;;;1.20;1.00;;;8.70;98.00;;;;;;5050328;28;20462;-73
2021/05/30 05:14:13;;;;;;;1.20;1.07;;;8.90;98.00;;;;;;5047761;28;20462;-73
2021/05/30 05:16:41;;;;;;;1.57;1.20;;;9.00;98.00;;;;;;5048943;28;20456;-73
2021/05/30 05:19:07;;;;;;;1.50;1.17;;;9.20;98.00;;;;;;5047710;28;20493;-72
2021/05/30 05:21:34;;;;;;;1.20;1.00;;;9.30;98.00;;;;;;5050387;28;20832;-73
2021/05/30 05:24:01;;;;;;;1.20;1.00;;;9.40;98.00;;;;;;5047434;28;20485;-73
2021/05/30 05:26:27;;;;;;;1.40;1.00;;;9.50;98.00;;;;;;5050160;28;20485;-73
2021/05/30 05:28:54;;;;;;;2.17;1.43;;;9.70;98.00;;;;;;5047359;28;21029;-73
2021/05/30 05:31:21;;;;;;;1.90;1.30;;;9.80;98.00;;;;;;5050005;28;20457;-74
2021/05/30 05:33:47;;;;;;;1.40;1.10;;;9.90;98.00;;;;;;5047176;28;20949;-73
2021/05/30 05:36:16;;;;;;;1.20;1.10;;;10.00;98.00;;;;;;5050157;28;20493;-72
2021/05/30 05:38:42;;;;;;;1.20;1.03;;;10.20;98.00;;;;;;5046172;28;20490;-73
2021/05/30 05:41:10;;;;;;;1.20;1.00;;;10.30;98.00;;;;;;5051940;28;20557;-73
2021/05/30 05:43:36;;;;;;;1.67;1.50;;;10.50;98.00;;;;;;5050903;28;20527;-73
2021/05/30 05:46:04;;;;;;;1.20;1.00;;;10.60;98.00;;;;;;5052460;28;20458;-73
2021/05/30 05:48:30;;;;;;;3.53;1.57;;;10.70;98.00;;;;;;5050952;28;20548;-73
2021/05/30 05:50:57;;;;;;;1.30;1.20;;;10.70;98.00;;;;;;5053404;28;20466;-73
2021/05/30 05:53:23;;;;;;;1.20;1.00;;;10.90;98.00;;;;;;5051188;28;20495;-72
2021/05/30 05:55:50;;;;;;;1.30;1.20;;;11.00;98.00;;;;;;5053610;28;20485;-73
2021/05/30 05:58:18;;;;;;;1.53;1.10;;;11.20;98.00;;;;;;5049651;28;20469;-74
2021/05/30 06:00:45;;;;;;;1.20;1.00;;;11.40;98.00;;;;;;5053558;28;20466;-72
2021/05/30 06:03:11;;;;;;;1.20;1.00;;;11.50;98.00;;;;;;5051105;28;20518;-72
2021/05/30 06:05:38;;;;;;;1.20;0.97;;;11.60;98.00;;;;;;5053189;28;20461;-73
2021/05/30 06:08:05;;;;;;;1.30;1.10;;;11.70;98.00;;;;;;5049804;28;20864;-72
2021/05/30 06:10:32;;;;;;;1.20;1.00;;;11.70;98.00;;;;;;5053380;28;20484;-72
2021/05/30 06:13:02;;;;;;;1.20;1.10;;;11.80;98.00;;;;;;5050744;28;20464;-73
2021/05/30 06:15:30;;;;;;;1.40;1.23;;;11.90;98.00;;;;;;5052257;28;20454;-72
2021/05/30 06:17:59;;;;;;;2.80;1.40;;;12.00;98.00;;;;;;5051253;28;20454;-71
2021/05/30 06:20:27;;;;;;;1.20;1.00;;;12.20;98.00;;;;;;5053095;28;20464;-70
2021/05/30 06:22:54;;;;;;;1.40;1.00;;;12.30;98.00;;;;;;5051059;28;20561;-70
2021/05/30 06:25:21;;;;;;;1.20;1.00;;;12.40;98.00;;;;;;5052959;28;20559;-71
2021/05/30 06:27:48;;;;;;;1.20;1.00;;;12.60;98.00;;;;;;5050920;28;20464;-71
2021/05/30 06:30:15;;;;;;;1.50;1.10;;;12.70;98.00;;;;;;5052834;28;20457;-70
2021/05/30 06:32:43;;;;;;;2.43;1.33;;;12.90;98.00;;;;;;5052818;28;20937;-70
2021/05/30 06:35:10;;;;;;;1.20;1.10;;;13.10;98.00;;;;;;5051363;28;20601;-70
2021/05/30 06:37:36;;;;;;;1.30;1.20;;;13.20;98.00;;;;;;5052720;28;20965;-71
2021/05/30 06:40:04;;;;;;;2.30;1.50;;;13.20;98.00;;;;;;5050632;28;20482;-70
2021/05/30 06:42:31;;;;;;;2.03;1.30;;;13.30;98.00;;;;;;5052728;28;20561;-70
2021/05/30 06:44:57;;;;;;;1.40;1.30;;;13.50;98.00;;;;;;5050534;28;20470;-71
2021/05/30 06:47:24;;;;;;;1.40;1.20;;;13.60;98.00;;;;;;5051573;28;20449;-72
2021/05/30 06:49:51;;;;;;;1.67;1.20;;;13.80;97.80;;;;;;5050512;28;20467;-72
2021/05/30 06:52:18;;;;;;;1.50;1.10;;;13.90;98.00;;;;;;5051245;28;20843;-73
2021/05/30 06:54:45;;;;;;;1.20;1.00;;;14.10;96.20;;;;;;5050217;28;20469;-73
2021/05/30 06:57:13;;;;;;;1.80;1.20;;;14.20;95.30;;;;;;5052483;28;20539;-74
2021/05/30 06:59:40;;;;;;;1.20;1.00;;;14.20;95.80;;;;;;5049987;28;20475;-75
2021/05/30 07:02:07;;;;;;;1.30;1.30;;;14.40;96.40;;;;;;5052280;28;20471;-73
2021/05/30 07:04:33;;;;;;;1.33;1.27;;;14.50;94.80;;;;;;5049862;28;20497;-73
2021/05/30 07:07:01;;;;;;;1.50;1.10;;;14.60;94.50;;;;;;5052298;28;20492;-74
2021/05/30 07:09:27;;;;;;;1.50;1.43;;;14.70;94.40;;;;;;5050354;28;20497;-72
2021/05/30 07:11:53;;;;;;;1.20;1.00;;;14.80;94.20;;;;;;5052161;28;20475;-74
2021/05/30 07:14:20;;;;;;;1.70;1.00;;;14.90;93.50;;;;;;5049808;28;20511;-73
2021/05/30 07:16:47;;;;;;;2.23;1.43;;;15.00;92.60;;;;;;5050772;28;20461;-73
2021/05/30 07:19:13;;;;;;;1.40;1.10;;;15.10;91.70;;;;;;5049968;28;20490;-72
2021/05/30 07:21:39;;;;;;;1.20;1.00;;;15.20;92.10;;;;;;5051812;28;20514;-72
2021/05/30 07:24:07;;;;;;;1.20;1.20;;;15.20;91.30;;;;;;5049830;28;20481;-73
2021/05/30 07:26:37;;;;;;;1.20;1.00;;;15.40;92.20;;;;;;5052049;28;20566;-73
2021/05/30 07:29:03;;;;;;;1.30;1.20;;;15.40;90.80;;;;;;5049913;28;20453;-72
2021/05/30 07:31:30;;;;;;;2.07;1.30;;;15.60;91.80;;;;;;5051936;28;20489;-73
2021/05/30 07:33:56;;;;;;;1.20;0.97;;;15.70;89.90;;;;;;5049629;28;20465;-73
2021/05/30 07:36:24;;;;;;;1.20;1.00;;;15.80;91.40;;;;;;5051713;28;20460;-73
2021/05/30 07:38:51;;;;;;;1.20;1.10;;;15.90;90.30;;;;;;5048424;28;20496;-73
2021/05/30 07:41:19;;;;;;;1.20;1.00;;;16.00;88.00;;;;;;5050981;28;21102;-75
2021/05/30 07:43:46;;;;;;;1.40;1.30;;;16.00;88.00;;;;;;5047665;28;20511;-74
2021/05/30 07:46:14;;;;;;;1.40;1.10;;;16.20;88.10;;;;;;5050423;28;20500;-71
2021/05/30 07:48:41;;;;;;;1.40;1.30;;;16.30;88.80;;;;;;5044560;28;20990;-76
2021/05/30 07:51:08;;;;;;;1.20;1.03;;;16.40;87.80;;;;;;5048491;28;20469;-77
2021/05/30 07:53:35;;;;;;;1.40;1.10;;;16.60;87.80;;;;;;5046494;28;20461;-74
2021/05/30 07:56:02;;;;;;;2.80;1.50;;;16.70;86.40;;;;;;5048501;28;20466;-74
2021/05/30 07:58:30;;;;;;;2.43;1.43;;;16.80;86.80;;;;;;5047948;28;20464;-76
2021/05/30 08:00:56;;;;;;;1.20;1.00;;;16.90;85.60;;;;;;5049612;28;20937;-76
2021/05/30 08:03:23;;;;;;;1.43;1.23;;;17.10;86.20;;;;;;5045714;28;20489;-72
2021/05/30 08:05:50;;;;;;;1.30;1.20;;;17.20;85.40;;;;;;5050361;28;20457;-72
2021/05/30 08:08:17;;;;;;;2.43;1.57;;;17.30;84.50;;;;;;5046701;28;20551;-72
2021/05/30 08:10:43;;;;;;;2.03;1.40;;;17.40;85.50;;;;;;5048236;28;20490;-74
2021/05/30 08:13:17;;;;;;;1.30;1.00;;;17.50;84.20;;;;;;5047015;28;20822;-75
2021/05/30 08:15:44;;;;;;;1.50;1.40;;;17.40;82.70;;;;;;5050508;28;21201;-73
2021/05/30 08:18:11;;;;;;;1.30;1.20;;;17.40;83.30;;;;;;5047564;28;20572;-76
2021/05/30 08:20:37;;;;;;;1.30;1.30;;;17.40;86.70;;;;;;5048011;28;20457;-77
2021/05/30 08:23:04;;;;;;;1.20;1.10;;;17.80;90.60;;;;;;5046175;28;20478;-73
2021/05/30 08:25:31;;;;;;;1.20;1.00;;;18.20;83.20;;;;;;5048221;28;20466;-75
2021/05/30 08:27:58;;;;;;;1.70;1.20;;;18.10;81.50;;;;;;5047084;28;20523;-73
2021/05/30 08:30:24;;;;;;;1.40;1.17;;;18.10;82.60;;;;;;5049820;28;20457;-75
2021/05/30 08:32:52;;;;;;;1.27;1.13;;;18.10;81.80;;;;;;5048976;28;20462;-74
2021/05/30 08:35:19;;;;;;;1.57;1.30;;;18.20;80.60;;;;;;5047234;28;20494;-71
2021/05/30 08:37:46;;;;;;;2.43;1.50;;;18.20;79.80;;;;;;5049870;28;20462;-74
2021/05/30 08:40:15;;;;;;;1.40;1.30;;;18.30;79.50;;;;;;5046089;28;20506;-74
2021/05/30 08:42:41;;;;;;;1.30;1.10;;;18.40;77.80;;;;;;5048504;28;20465;-71
2021/05/30 08:45:09;;;;;;;1.20;1.10;;;18.20;78.10;;;;;;5039816;28;20672;-75
2021/05/30 08:47:36;;;;;;;1.63;1.37;;;18.30;79.40;;;;;;5046996;28;20821;-75
2021/05/30 08:50:05;;;;;;;1.67;1.30;;;18.40;76.70;;;;;;5048185;28;20484;-74
2021/05/30 08:52:33;;;;;;;1.53;1.33;;;18.50;73.50;;;;;;5050130;28;20466;-73
2021/05/30 08:55:00;;;;;;;1.20;1.10;;;18.30;74.20;;;;;;5047012;28;20480;-72
2021/05/30 08:57:27;;;;;;;1.77;1.30;;;18.30;75.90;;;;;;5049993;28;20461;-72
2021/05/30 08:59:56;;;;;;;1.27;1.13;;;18.30;76.10;;;;;;5047751;28;20462;-73
2021/05/30 09:02:23;;;;;;;1.97;1.20;;;18.40;75.30;;;;;;5050208;28;20465;-72
2021/05/30 09:04:51;;;;;;;1.20;1.00;;;18.60;76.20;;;;;;5048231;28;20517;-70
2021/05/30 09:07:19;;;;;;;1.60;1.17;;;18.80;74.50;;;;;;5049987;28;20817;-74
2021/05/30 09:09:47;;;;;;;1.57;1.20;;;19.10;75.30;;;;;;5046525;28;20847;-75
2021/05/30 09:12:34;;;;;;;1.40;1.20;;;19.40;73.80;;;;;;5049951;28;20948;-76
2021/05/30 09:15:04;;;;;;;1.30;1.10;;;19.60;73.50;;;;;;5046792;28;20804;-76
2021/05/30 09:17:32;;;;;;;1.20;1.10;;;19.60;72.30;;;;;;5053412;28;20825;-75
2021/05/30 09:19:59;;;;;;;1.40;1.10;;;19.30;70.50;;;;;;5051514;28;20453;-77
2021/05/30 09:22:31;;;;;;;1.67;1.37;;;19.20;71.10;;;;;;5053838;28;20453;-78
2021/05/30 09:25:20;;;;;;;1.20;1.10;;;19.10;72.30;;;;;;5051459;28;20858;-75
2021/05/30 09:28:06;;;;;;;1.43;1.30;;;19.10;72.50;;;;;;5053707;28;20943;-76
2021/05/30 09:30:39;;;;;;;1.20;1.00;;;18.80;72.60;;;;;;5053603;28;20497;-76
2021/05/30 09:33:08;;;;;;;1.30;1.10;;;18.70;75.20;;;;;;5052007;28;20453;-77
2021/05/30 09:35:53;;;;;;;1.20;1.00;;;18.70;75.50;;;;;;5052051;28;20466;-77
2021/05/30 09:38:23;;;;;;;1.83;1.33;;;18.60;75.50;;;;;;5051334;28;20841;-76
2021/05/30 09:40:52;;;;;;;1.70;1.20;;;18.70;74.90;;;;;;5053364;28;20453;-73
2021/05/30 09:43:20;;;;;;;1.20;1.10;;;18.60;74.40;;;;;;5051002;28;20504;-74
2021/05/30 09:46:01;;;;;;;1.30;1.13;;;18.40;74.60;;;;;;5053166;28;20539;-74
2021/05/30 09:48:28;;;;;;;1.30;1.10;;;18.40;72.40;;;;;;5050974;28;20497;-75
2021/05/30 09:51:05;;;;;;;1.73;1.30;;;18.30;73.40;;;;;;5053131;28;20527;-78
2021/05/30 09:53:54;;;;;;;1.73;1.20;;;18.20;74.90;;;;;;5051005;28;20465;-74
2021/05/30 09:56:38;;;;;;;1.30;1.10;;;18.30;73.60;;;;;;5033445;28;20454;-74
2021/05/30 09:59:17;;;;;;;1.97;1.47;;;18.50;73.20;;;;;;5031349;28;20524;-76
2021/05/30 10:01:52;;;;;;;1.50;1.10;;;19.00;72.10;;;;;;5030314;28;20513;-76
2021/05/30 10:04:26;;;;;;;2.03;1.30;;;19.40;70.20;;;;;;5031031;28;20481;-77
2021/05/30 10:06:54;;;;;;;1.50;1.20;;;19.70;71.60;;;;;;5034026;28;20956;-76
2021/05/30 10:09:21;;;;;;;1.87;1.30;;;19.80;71.00;;;;;;5031273;28;20457;-76
2021/05/30 10:11:50;;;;;;;1.20;1.00;;;20.00;70.80;;;;;;5033784;28;20463;-76
2021/05/30 10:14:16;;;;;;;1.30;1.10;;;20.30;70.30;;;;;;5031361;28;20462;-76
2021/05/30 10:16:43;;;;;;;1.20;1.00;;;20.50;70.50;;;;;;5033784;28;20466;-78
2021/05/30 10:19:13;;;;;;;1.30;1.10;;;20.80;68.80;;;;;;5031782;28;20957;-77
2021/05/30 10:21:44;;;;;;;1.20;1.07;;;20.70;68.10;;;;;;5033388;28;20456;-76
2021/05/30 10:24:11;;;;;;;1.30;1.17;;;20.60;67.20;;;;;;5031903;28;20486;-75
2021/05/30 10:26:39;;;;;;;1.20;1.00;;;20.60;67.80;;;;;;5033536;28;20486;-76
2021/05/30 10:29:15;;;;;;;1.70;1.30;;;20.60;69.00;;;;;;5030794;28;20451;-76
2021/05/30 10:31:43;;;;;;;1.50;1.20;;;20.40;68.10;;;;;;5031903;28;20512;-76
2021/05/30 10:34:18;;;;;;;1.50;1.13;;;20.40;67.00;;;;;;5030721;28;20510;-76
2021/05/30 10:37:25;;;;;;;1.60;1.30;;;20.20;67.10;;;;;;5033009;28;20462;-76
2021/05/30 10:39:52;;;;;;;1.40;1.30;;;20.00;66.60;;;;;;5030413;28;20462;-77
2021/05/30 10:42:25;;;;;;;1.20;1.00;;;19.80;66.20;;;;;;5032864;28;20556;-76
2021/05/30 10:44:57;;;;;;;1.87;1.40;;;19.90;66.20;;;;;;5030098;28;20581;-77
2021/05/30 10:48:16;;;;;;;1.43;1.30;;;19.70;65.50;;;;;;5032616;28;20823;-75
2021/05/30 10:50:53;;;;;;;1.50;1.20;;;19.80;67.70;;;;;;5032749;28;20473;-77
2021/05/30 10:53:34;;;;;;;1.20;1.00;;;20.40;67.00;;;;;;5030085;28;20458;-77
2021/05/30 10:56:21;;;;;;;1.63;1.30;;;20.70;62.80;;;;;;5032855;28;21022;-77
2021/05/30 10:59:21;;;;;;;1.83;1.30;;;21.20;62.40;;;;;;5029986;28;20466;-78
2021/05/30 11:01:51;;;;;;;1.20;1.00;;;21.60;63.90;;;;;;5032550;28;20455;-76
2021/05/30 11:04:35;;;;;;;2.00;1.20;;;22.10;62.80;;;;;;5029945;28;20486;-78
2021/05/30 11:07:09;;;;;;;1.40;1.20;;;22.40;62.50;;;;;;5032501;28;20517;-75
2021/05/30 11:10:11;;;;;;;1.20;1.00;;;22.40;61.90;;;;;;5030245;28;21240;-77
2021/05/30 11:12:55;;;;;;;1.60;1.27;;;22.20;71.00;;;;;;5032361;28;20456;-76
2021/05/30 11:15:28;;;;;;;1.47;1.30;;;22.30;65.20;;;;;;5029961;28;20984;-76
2021/05/30 11:17:56;;;;;;;2.07;1.20;;;22.20;63.50;;;;;;5032077;28;20493;-76
2021/05/30 11:20:27;;;;;;;1.60;1.33;;;22.10;62.90;;;;;;5029731;28;20465;-76
2021/05/30 11:22:57;;;;;;;1.40;1.20;;;22.10;62.60;;;;;;5032204;28;20462;-76
2021/05/30 11:25:31;;;;;;;1.40;1.20;;;22.40;64.80;;;;;;5028700;28;20457;-77
2021/05/30 11:27:59;;;;;;;1.33;1.27;;;22.70;61.50;;;;;;5031842;28;20463;-77
2021/05/30 11:30:48;;;;;;;1.63;1.30;;;23.00;60.30;;;;;;5029644;28;20947;-76
2021/05/30 11:33:27;;;;;;;1.50;1.40;;;23.30;61.10;;;;;;5031498;28;20462;-77
2021/05/30 11:35:59;;;;;;;1.50;1.30;;;23.70;59.00;;;;;;5032110;28;20465;-77
2021/05/30 11:38:41;;;;;;;1.40;1.30;;;23.50;56.80;;;;;;5029057;28;20470;-78
2021/05/30 11:41:09;;;;;;;2.07;1.27;;;23.30;61.90;;;;;;5031821;28;20458;-78
2021/05/30 11:43:36;;;;;;;1.20;1.10;;;22.90;62.50;;;;;;5029461;28;21053;-77
2021/05/30 11:46:12;;;;;;;2.90;1.20;;;23.20;63.50;;;;;;5031576;28;20455;-76
2021/05/30 11:48:38;;;;;;;1.30;1.20;;;23.30;60.90;;;;;;5029107;28;21112;-76
2021/05/30 11:51:05;;;;;;;1.50;1.30;;;22.90;62.10;;;;;;5031376;28;20459;-76
2021/05/30 11:53:34;;;;;;;1.70;1.27;;;22.60;61.80;;;;;;5029197;28;20458;-77
2021/05/30 11:56:03;;;;;;;1.40;1.20;;;22.80;61.30;;;;;;5031476;28;20477;-77
2021/05/30 11:58:30;;;;;;;1.83;1.30;;;23.30;61.60;;;;;;5028865;28;20983;-76
2021/05/30 12:01:00;;;;;;;1.87;1.50;;;23.50;61.60;;;;;;5030093;28;20864;-77
2021/05/30 12:03:28;;;;;;;1.63;1.20;;;24.00;60.40;;;;;;5028400;28;20479;-76
2021/05/30 12:05:58;;;;;;;1.87;1.37;;;24.10;59.20;;;;;;5031130;28;20455;-76
2021/05/30 12:08:31;;;;;;;1.33;1.10;;;24.20;59.20;;;;;;5028726;28;20458;-77
2021/05/30 12:11:00;;;;;;;1.57;1.30;;;24.40;60.10;;;;;;5031233;28;20985;-76
2021/05/30 12:13:32;;;;;;;1.60;1.40;;;24.60;60.20;;;;;;5028695;28;20467;-77
2021/05/30 12:16:00;;;;;;;1.33;1.13;;;24.40;57.70;;;;;;5031386;28;20538;-77
2021/05/30 12:18:28;;;;;;;1.60;1.30;;;23.80;56.90;;;;;;5028658;28;21003;-76
2021/05/30 12:21:05;;;;;;;1.27;1.10;;;23.40;58.80;;;;;;5031043;28;20498;-76
2021/05/30 12:23:37;;;;;;;1.40;1.30;;;23.50;59.30;;;;;;5029110;28;20489;-75
2021/05/30 12:26:05;;;;;;;1.43;1.33;;;23.90;59.70;;;;;;5031060;28;20475;-76
2021/05/30 12:28:35;;;;;;;1.40;1.10;;;24.30;57.70;;;;;;5029093;28;20458;-75
2021/05/30 12:31:04;;;;;;;2.77;1.47;;;24.50;56.40;;;;;;5029982;28;20941;-75
2021/05/30 12:33:51;;;;;;;1.40;1.20;;;24.70;54.90;;;;;;5028740;28;20463;-75
2021/05/30 12:36:30;;;;;;;1.20;1.20;;;24.40;57.60;;;;;;5031171;28;20953;-76
2021/05/30 12:39:01;;;;;;;1.40;1.20;;;24.30;57.80;;;;;;5029122;28;20459;-76
2021/05/30 12:41:32;;;;;;;1.50;1.30;;;24.20;56.30;;;;;;5031590;28;20983;-75
2021/05/30 12:44:22;;;;;;;1.60;1.10;;;24.50;57.40;;;;;;5028843;28;20489;-76
2021/05/30 12:46:59;;;;;;;1.93;1.37;;;24.80;57.60;;;;;;5031392;28;20828;-76
2021/05/30 12:49:28;;;;;;;2.07;1.43;;;24.60;56.80;;;;;;5048119;28;20511;-76
2021/05/30 12:52:00;;;;;;;1.50;1.20;;;24.70;57.00;;;;;;5055015;28;20462;-76
2021/05/30 12:54:28;;;;;;;2.13;1.47;;;25.00;57.90;;;;;;5052828;28;20591;-76
2021/05/30 12:57:03;;;;;;;1.60;1.30;;;25.30;56.70;;;;;;5055450;28;20469;-76
2021/05/30 12:59:33;;;;;;;2.00;1.30;;;25.40;56.20;;;;;;5052811;28;20461;-77
2021/05/30 13:02:10;;;;;;;1.20;1.07;;;25.40;55.80;;;;;;5055295;28;20468;-76